createdAt,value
2023-01-11T00:00:13.990Z,1014.68
2023-01-11T00:01:14.135Z,1014.69
2023-01-11T00:02:14.356Z,1014.79
2023-01-11T00:03:14.483Z,1014.77
2023-01-11T00:04:14.774Z,1014.70
2023-01-11T00:05:14.839Z,1014.76
2023-01-11T00:06:15.027Z,1014.68
2023-01-11T00:07:15.283Z,1014.66
2023-01-11T00:08:15.412Z,1014.67
2023-01-11T00:09:15.866Z,1014.66
2023-01-11T00:10:15.796Z,1014.64
2023-01-11T00:11:15.952Z,1014.68
2023-01-11T00:12:16.123Z,1014.63
2023-01-11T00:13:16.307Z,1014.66
2023-01-11T00:14:16.505Z,1014.63
2023-01-11T00:15:16.687Z,1014.64
2023-01-11T00:16:16.899Z,1014.66
2023-01-11T00:17:17.012Z,1014.69
2023-01-11T00:18:17.199Z,1014.63
2023-01-11T00:19:17.446Z,1014.53
2023-01-11T00:20:17.558Z,1014.54
2023-01-11T00:21:17.767Z,1014.49
2023-01-11T00:22:17.957Z,1014.42
2023-01-11T00:23:18.118Z,1014.42
2023-01-11T00:24:18.342Z,1014.38
2023-01-11T00:25:18.503Z,1014.35
2023-01-11T00:26:18.664Z,1014.38
2023-01-11T00:27:18.846Z,1014.35
2023-01-11T00:28:19.021Z,1014.37
2023-01-11T00:29:19.234Z,1014.38
2023-01-11T00:30:19.383Z,1014.37
2023-01-11T00:31:19.599Z,1014.37
2023-01-11T00:32:19.720Z,1014.37
2023-01-11T00:33:19.959Z,1014.40
2023-01-11T00:34:20.104Z,1014.37
2023-01-11T00:35:20.249Z,1014.26
2023-01-11T00:36:20.446Z,1014.29
2023-01-11T00:37:20.595Z,1014.27
2023-01-11T00:38:20.805Z,1014.27
2023-01-11T00:39:20.953Z,1014.23
2023-01-11T00:40:21.177Z,1014.20
2023-01-11T00:41:21.307Z,1014.29
2023-01-11T00:42:21.452Z,1014.21
2023-01-11T00:43:21.680Z,1014.15
2023-01-11T00:44:21.846Z,1014.11
2023-01-11T00:45:21.992Z,1014.10
2023-01-11T00:46:22.200Z,1014.13
2023-01-11T00:47:22.334Z,1014.20
2023-01-11T00:48:22.565Z,1014.11
2023-01-11T00:49:22.709Z,1014.08
2023-01-11T00:50:22.886Z,1014.04
2023-01-11T00:51:23.074Z,1014.05
2023-01-11T00:52:23.260Z,1013.99
2023-01-11T00:53:23.719Z,1013.96
2023-01-11T00:54:23.591Z,1014.03
2023-01-11T00:55:23.815Z,1013.96
2023-01-11T00:56:23.978Z,1013.98
2023-01-11T00:57:24.151Z,1013.88
2023-01-11T00:58:24.352Z,1013.90
2023-01-11T00:59:24.519Z,1013.90
2023-01-11T01:00:24.667Z,1013.94
2023-01-11T01:01:24.883Z,1013.84
2023-01-11T01:02:25.049Z,1013.87
2023-01-11T01:03:25.211Z,1013.86
2023-01-11T01:04:25.366Z,1013.84
2023-01-11T01:05:25.563Z,1013.92
2023-01-11T01:06:25.727Z,1013.80
2023-01-11T01:07:25.898Z,1013.75
2023-01-11T01:08:26.041Z,1013.78
2023-01-11T01:09:26.214Z,1013.72
2023-01-11T01:10:26.378Z,1013.72
2023-01-11T01:11:26.592Z,1013.79
2023-01-11T01:12:26.722Z,1013.71
2023-01-11T01:13:26.903Z,1013.72
2023-01-11T01:14:27.098Z,1013.74
2023-01-11T01:15:27.309Z,1013.74
2023-01-11T01:16:27.453Z,1013.76
2023-01-11T01:17:27.635Z,1013.79
2023-01-11T01:18:27.779Z,1013.82
2023-01-11T01:19:27.962Z,1013.84
2023-01-11T01:20:28.172Z,1013.80
2023-01-11T01:21:28.325Z,1013.80
2023-01-11T01:22:28.477Z,1013.89
2023-01-11T01:23:28.664Z,1013.83
2023-01-11T01:24:28.866Z,1013.81
2023-01-11T01:25:29.013Z,1013.77
2023-01-11T01:26:29.184Z,1013.76
2023-01-11T01:27:29.360Z,1013.75
2023-01-11T01:28:29.541Z,1013.75
2023-01-11T01:29:29.667Z,1013.75
2023-01-11T01:30:29.837Z,1013.75
2023-01-11T01:31:30.085Z,1013.73
2023-01-11T01:32:30.189Z,1013.73
2023-01-11T01:33:30.439Z,1013.66
2023-01-11T01:34:30.582Z,1013.68
2023-01-11T01:35:30.743Z,1013.71
2023-01-11T01:36:30.909Z,1013.73
2023-01-11T01:37:31.102Z,1013.61
2023-01-11T01:38:31.292Z,1013.77
2023-01-11T01:39:31.480Z,1013.78
2023-01-11T01:40:31.661Z,1013.72
2023-01-11T01:41:31.840Z,1013.71
2023-01-11T01:42:32.018Z,1013.71
2023-01-11T01:43:32.221Z,1013.69
2023-01-11T01:44:32.365Z,1013.61
2023-01-11T01:45:32.560Z,1013.56
2023-01-11T01:46:32.804Z,1013.55
2023-01-11T01:47:32.930Z,1013.53
2023-01-11T01:48:33.131Z,1013.49
2023-01-11T01:49:33.276Z,1013.57
2023-01-11T01:50:33.468Z,1013.51
2023-01-11T01:51:33.648Z,1013.47
2023-01-11T01:52:33.821Z,1013.46
2023-01-11T01:53:34.045Z,1013.59
2023-01-11T01:54:34.185Z,1013.51
2023-01-11T01:55:34.392Z,1013.46
2023-01-11T01:56:34.539Z,1013.52
2023-01-11T01:57:34.716Z,1013.40
2023-01-11T01:58:34.929Z,1013.39
2023-01-11T01:59:35.079Z,1013.46
2023-01-11T02:00:35.260Z,1013.37
2023-01-11T02:01:35.455Z,1013.34
2023-01-11T02:02:35.642Z,1013.41
2023-01-11T02:03:35.889Z,1013.34
2023-01-11T02:04:36.005Z,1013.32
2023-01-11T02:05:36.150Z,1013.36
2023-01-11T02:06:36.356Z,1013.39
2023-01-11T02:07:36.513Z,1013.37
2023-01-11T02:08:36.673Z,1013.30
2023-01-11T02:09:36.860Z,1013.27
2023-01-11T02:10:37.011Z,1013.26
2023-01-11T02:11:37.184Z,1013.24
2023-01-11T02:12:37.335Z,1013.18
2023-01-11T02:13:37.540Z,1013.18
2023-01-11T02:14:37.719Z,1013.19
2023-01-11T02:15:37.867Z,1013.11
2023-01-11T02:16:38.053Z,1013.14
2023-01-11T02:17:38.239Z,1013.17
2023-01-11T02:18:38.447Z,1013.09
2023-01-11T02:19:38.584Z,1013.11
2023-01-11T02:20:38.761Z,1013.08
2023-01-11T02:21:38.947Z,1013.05
2023-01-11T02:22:39.149Z,1013.05
2023-01-11T02:23:39.298Z,1013.03
2023-01-11T02:24:39.481Z,1013.00
2023-01-11T02:25:39.632Z,1013.00
2023-01-11T02:26:39.808Z,1012.97
2023-01-11T02:27:40.003Z,1012.89
2023-01-11T02:28:40.183Z,1012.89
2023-01-11T02:29:40.381Z,1012.84
2023-01-11T02:30:40.530Z,1012.87
2023-01-11T02:31:40.801Z,1012.86
2023-01-11T02:32:40.905Z,1012.80
2023-01-11T02:33:41.044Z,1012.80
2023-01-11T02:34:41.252Z,1012.76
2023-01-11T02:35:41.396Z,1012.74
2023-01-11T02:36:41.598Z,1012.76
2023-01-11T02:37:41.746Z,1012.81
2023-01-11T02:38:41.925Z,1012.74
2023-01-11T02:39:42.112Z,1012.78
2023-01-11T02:40:42.317Z,1012.77
2023-01-11T02:41:42.475Z,1012.72
2023-01-11T02:42:42.610Z,1012.73
2023-01-11T02:43:42.787Z,1012.82
2023-01-11T02:44:42.997Z,1012.75
2023-01-11T02:45:43.141Z,1012.74
2023-01-11T02:46:43.478Z,1012.69
2023-01-11T02:47:43.497Z,1012.75
2023-01-11T02:48:43.669Z,1012.70
2023-01-11T02:49:43.854Z,1012.74
2023-01-11T02:50:44.051Z,1012.61
2023-01-11T02:51:44.215Z,1012.58
2023-01-11T02:52:44.356Z,1012.55
2023-01-11T02:53:44.526Z,1012.50
2023-01-11T02:54:44.810Z,1012.47
2023-01-11T02:55:44.948Z,1012.55
2023-01-11T02:56:45.081Z,1012.50
2023-01-11T02:57:45.264Z,1012.52
2023-01-11T02:58:45.450Z,1012.48
2023-01-11T02:59:45.640Z,1012.47
2023-01-11T03:00:45.781Z,1012.50
2023-01-11T03:01:46.031Z,1012.42
2023-01-11T03:02:46.199Z,1012.39
2023-01-11T03:03:46.341Z,1012.42
2023-01-11T03:04:46.533Z,1012.35
2023-01-11T03:05:46.679Z,1012.37
2023-01-11T03:06:46.892Z,1012.40
2023-01-11T03:07:47.048Z,1012.41
2023-01-11T03:08:47.252Z,1012.24
2023-01-11T03:09:47.473Z,1012.28
2023-01-11T03:10:47.572Z,1012.20
2023-01-11T03:11:47.750Z,1012.24
2023-01-11T03:12:47.915Z,1012.25
2023-01-11T03:13:48.061Z,1012.20
2023-01-11T03:14:48.256Z,1012.14
2023-01-11T03:15:48.462Z,1012.18
2023-01-11T03:16:48.595Z,1012.22
2023-01-11T03:17:48.777Z,1012.21
2023-01-11T03:18:48.966Z,1012.16
2023-01-11T03:19:49.169Z,1012.15
2023-01-11T03:20:49.340Z,1012.09
2023-01-11T03:21:49.511Z,1012.09
2023-01-11T03:22:49.687Z,1012.06
2023-01-11T03:23:49.877Z,1012.03
2023-01-11T03:24:50.085Z,1012.11
2023-01-11T03:25:50.254Z,1012.08
2023-01-11T03:26:50.419Z,1012.06
2023-01-11T03:27:50.597Z,1012.09
2023-01-11T03:28:50.784Z,1012.08
2023-01-11T03:29:51.004Z,1012.09
2023-01-11T03:30:51.159Z,1012.11
2023-01-11T03:31:51.300Z,1012.11
2023-01-11T03:32:51.515Z,1012.14
2023-01-11T03:33:51.678Z,1012.11
2023-01-11T03:34:51.849Z,1012.04
2023-01-11T03:35:52.047Z,1012.03
2023-01-11T03:36:52.206Z,1011.97
2023-01-11T03:37:52.383Z,1011.99
2023-01-11T03:38:52.574Z,1011.96
2023-01-11T03:39:52.753Z,1012.02
2023-01-11T03:40:52.966Z,1011.94
2023-01-11T03:41:53.139Z,1011.97
2023-01-11T03:42:53.273Z,1012.02
2023-01-11T03:43:53.461Z,1012.00
2023-01-11T03:44:53.613Z,1012.03
2023-01-11T03:45:53.820Z,1011.92
2023-01-11T03:46:54.035Z,1011.93
2023-01-11T03:47:54.123Z,1011.90
2023-01-11T03:48:54.321Z,1011.82
2023-01-11T03:49:54.510Z,1011.83
2023-01-11T03:50:54.660Z,1011.86
2023-01-11T03:51:54.837Z,1011.82
2023-01-11T03:52:55.035Z,1011.82
2023-01-11T03:53:55.190Z,1011.79
2023-01-11T03:54:55.377Z,1011.75
2023-01-11T03:55:55.549Z,1011.77
2023-01-11T03:56:55.724Z,1011.74
2023-01-11T03:57:55.921Z,1011.78
2023-01-11T03:58:56.102Z,1011.82
2023-01-11T03:59:56.253Z,1011.73
2023-01-11T04:00:56.428Z,1011.79
2023-01-11T04:01:56.606Z,1011.76
2023-01-11T04:02:56.805Z,1011.76
2023-01-11T04:03:57.013Z,1011.74
2023-01-11T04:04:57.164Z,1011.73
2023-01-11T04:05:57.348Z,1011.74
2023-01-11T04:06:57.587Z,1011.74
2023-01-11T04:07:57.703Z,1011.75
2023-01-11T04:08:57.863Z,1011.72
2023-01-11T04:09:58.031Z,1011.77
2023-01-11T04:10:58.181Z,1011.71
2023-01-11T04:11:58.360Z,1011.72
2023-01-11T04:12:58.578Z,1011.68
2023-01-11T04:13:58.724Z,1011.67
2023-01-11T04:14:58.930Z,1011.60
2023-01-11T04:15:59.097Z,1011.63
2023-01-11T04:16:59.260Z,1011.54
2023-01-11T04:17:59.434Z,1011.57
2023-01-11T04:18:59.601Z,1011.56
2023-01-11T04:19:59.772Z,1011.62
2023-01-11T04:20:59.971Z,1011.56
2023-01-11T04:22:00.140Z,1011.51
2023-01-11T04:23:00.295Z,1011.54
2023-01-11T04:24:00.497Z,1011.62
2023-01-11T04:25:00.656Z,1011.57
2023-01-11T04:26:00.864Z,1011.54
2023-01-11T04:27:01.013Z,1011.49
2023-01-11T04:28:01.156Z,1011.49
2023-01-11T04:29:01.352Z,1011.50
2023-01-11T04:30:01.522Z,1011.44
2023-01-11T04:31:01.706Z,1011.48
2023-01-11T04:32:01.897Z,1011.44
2023-01-11T04:33:02.048Z,1011.46
2023-01-11T04:34:09.231Z,1011.38
2023-01-11T04:35:02.405Z,1011.46
2023-01-11T04:36:02.597Z,1011.34
2023-01-11T04:37:02.805Z,1011.35
2023-01-11T04:38:02.952Z,1011.31
2023-01-11T04:39:03.138Z,1011.23
2023-01-11T04:40:03.354Z,1011.22
2023-01-11T04:41:03.493Z,1011.28
2023-01-11T04:42:03.680Z,1011.24
2023-01-11T04:43:03.869Z,1011.22
2023-01-11T04:44:04.036Z,1011.23
2023-01-11T04:45:04.229Z,1011.20
2023-01-11T04:46:04.442Z,1011.20
2023-01-11T04:47:04.583Z,1011.19
2023-01-11T04:48:04.745Z,1011.14
2023-01-11T04:49:04.942Z,1011.14
2023-01-11T04:50:05.199Z,1011.19
2023-01-11T04:51:05.338Z,1011.18
2023-01-11T04:52:05.490Z,1011.27
2023-01-11T04:53:05.688Z,1011.19
2023-01-11T04:54:05.869Z,1011.15
2023-01-11T04:55:06.066Z,1011.14
2023-01-11T04:56:06.220Z,1011.04
2023-01-11T04:57:06.399Z,1011.08
2023-01-11T04:58:06.580Z,1011.08
2023-01-11T04:59:06.784Z,1011.01
2023-01-11T05:00:06.973Z,1011.03
2023-01-11T05:01:07.194Z,1011.03
2023-01-11T05:02:07.296Z,1010.99
2023-01-11T05:03:07.477Z,1011.01
2023-01-11T05:04:07.766Z,1011.03
2023-01-11T05:05:07.828Z,1011.05
2023-01-11T05:06:08.008Z,1011.07
2023-01-11T05:07:08.188Z,1011.05
2023-01-11T05:08:08.384Z,1011.06
2023-01-11T05:09:08.595Z,1011.00
2023-01-11T05:10:08.737Z,1011.03
2023-01-11T05:11:08.932Z,1011.00
2023-01-11T05:12:09.100Z,1011.01
2023-01-11T05:13:09.300Z,1010.98
2023-01-11T05:14:09.500Z,1010.92
2023-01-11T05:15:09.646Z,1010.93
2023-01-11T05:16:09.849Z,1010.97
2023-01-11T05:17:10.005Z,1010.95
2023-01-11T05:18:10.193Z,1010.97
2023-01-11T05:19:10.379Z,1010.89
2023-01-11T05:20:10.620Z,1010.92
2023-01-11T05:21:10.745Z,1010.90
2023-01-11T05:22:10.923Z,1010.96
2023-01-11T05:23:11.112Z,1010.96
2023-01-11T05:24:11.304Z,1010.92
2023-01-11T05:25:11.448Z,1010.92
2023-01-11T05:26:11.632Z,1010.87
2023-01-11T05:27:11.865Z,1010.93
2023-01-11T05:28:11.980Z,1010.94
2023-01-11T05:29:12.167Z,1010.88
2023-01-11T05:30:12.353Z,1010.96
2023-01-11T05:31:12.543Z,1011.02
2023-01-11T05:32:12.757Z,1010.97
2023-01-11T05:33:12.914Z,1010.87
2023-01-11T05:34:13.061Z,1010.91
2023-01-11T05:35:13.246Z,1010.84
2023-01-11T05:36:13.429Z,1010.80
2023-01-11T05:37:13.621Z,1010.83
2023-01-11T05:38:13.770Z,1010.76
2023-01-11T05:39:13.957Z,1010.70
2023-01-11T05:40:14.145Z,1010.72
2023-01-11T05:41:14.333Z,1010.68
2023-01-11T05:42:14.520Z,1010.71
2023-01-11T05:43:14.667Z,1010.74
2023-01-11T05:44:14.844Z,1010.75
2023-01-11T05:45:15.060Z,1010.74
2023-01-11T05:46:15.276Z,1010.74
2023-01-11T05:47:15.404Z,1010.74
2023-01-11T05:48:15.543Z,1010.73
2023-01-11T05:49:15.748Z,1010.76
2023-01-11T05:50:15.913Z,1010.75
2023-01-11T05:51:16.103Z,1010.75
2023-01-11T05:52:16.303Z,1010.69
2023-01-11T05:53:16.450Z,1010.70
2023-01-11T05:54:16.618Z,1010.70
2023-01-11T05:55:16.789Z,1010.64
2023-01-11T05:56:16.973Z,1010.64
2023-01-11T05:57:17.171Z,1010.60
2023-01-11T05:58:17.335Z,1010.58
2023-01-11T05:59:17.565Z,1010.59
2023-01-11T06:00:17.690Z,1010.55
2023-01-11T06:01:17.851Z,1010.55
2023-01-11T06:02:18.182Z,1010.55
2023-01-11T06:03:18.279Z,1010.53
2023-01-11T06:04:18.392Z,1010.49
2023-01-11T06:05:18.572Z,1010.49
2023-01-11T06:06:18.745Z,1010.52
2023-01-11T06:07:18.963Z,1010.44
2023-01-11T06:08:19.108Z,1010.45
2023-01-11T06:09:19.301Z,1010.37
2023-01-11T06:10:19.484Z,1010.34
2023-01-11T06:11:19.674Z,1010.30
2023-01-11T06:12:19.813Z,1010.40
2023-01-11T06:13:20.005Z,1010.36
2023-01-11T06:14:20.228Z,1010.39
2023-01-11T06:15:20.367Z,1010.40
2023-01-11T06:16:20.597Z,1010.41
2023-01-11T06:17:20.748Z,1010.46
2023-01-11T06:18:20.917Z,1010.45
2023-01-11T06:19:21.117Z,1010.45
2023-01-11T06:20:21.294Z,1010.40
2023-01-11T06:21:21.447Z,1010.33
2023-01-11T06:22:21.594Z,1010.33
2023-01-11T06:23:21.802Z,1010.27
2023-01-11T06:24:21.940Z,1010.22
2023-01-11T06:25:22.139Z,1010.25
2023-01-11T06:26:22.334Z,1010.29
2023-01-11T06:27:22.485Z,1010.33
2023-01-11T06:28:22.659Z,1010.25
2023-01-11T06:29:22.843Z,1010.19
2023-01-11T06:30:23.027Z,1010.20
2023-01-11T06:31:23.220Z,1010.21
2023-01-11T06:32:23.326Z,1010.26
2023-01-11T06:33:23.509Z,1010.28
2023-01-11T06:34:23.693Z,1010.23
2023-01-11T06:35:23.896Z,1010.26
2023-01-11T06:36:24.091Z,1010.23
2023-01-11T06:37:24.245Z,1010.23
2023-01-11T06:38:24.423Z,1010.23
2023-01-11T06:39:24.573Z,1010.27
2023-01-11T06:40:24.745Z,1010.24
2023-01-11T06:41:24.959Z,1010.25
2023-01-11T06:42:25.114Z,1010.16
2023-01-11T06:43:25.267Z,1010.14
2023-01-11T06:44:25.459Z,1010.14
2023-01-11T06:45:25.650Z,1010.15
2023-01-11T06:46:28.242Z,1010.23
2023-01-11T06:47:26.004Z,1010.25
2023-01-11T06:48:26.184Z,1010.27
2023-01-11T06:49:26.361Z,1010.27
2023-01-11T06:50:26.593Z,1010.35
2023-01-11T06:51:26.751Z,1010.28
2023-01-11T06:52:26.928Z,1010.24
2023-01-11T06:53:28.901Z,1010.28
2023-01-11T06:54:27.294Z,1010.25
2023-01-11T06:55:27.470Z,1010.35
2023-01-11T06:56:27.624Z,1010.32
2023-01-11T06:57:27.806Z,1010.28
2023-01-11T06:58:27.979Z,1010.27
2023-01-11T06:59:28.152Z,1010.30
2023-01-11T07:00:28.354Z,1010.33
2023-01-11T07:01:28.596Z,1010.35
2023-01-11T07:02:28.697Z,1010.33
2023-01-11T07:03:28.893Z,1010.40
2023-01-11T07:04:29.032Z,1010.37
2023-01-11T07:05:29.272Z,1010.40
2023-01-11T07:06:29.456Z,1010.43
2023-01-11T07:07:29.582Z,1010.45
2023-01-11T07:08:29.772Z,1010.45
2023-01-11T07:09:29.949Z,1010.51
2023-01-11T07:10:30.316Z,1010.47
2023-01-11T07:11:30.301Z,1010.49
2023-01-11T07:12:30.492Z,1010.52
2023-01-11T07:13:30.677Z,1010.59
2023-01-11T07:14:30.873Z,1010.54
2023-01-11T07:15:31.011Z,1010.50
2023-01-11T07:16:31.222Z,1010.54
2023-01-11T07:17:31.351Z,1010.46
2023-01-11T07:18:31.535Z,1010.50
2023-01-11T07:19:31.692Z,1010.52
2023-01-11T07:20:31.848Z,1010.50
2023-01-11T07:21:32.025Z,1010.51
2023-01-11T07:22:32.183Z,1010.56
2023-01-11T07:23:32.354Z,1010.57
2023-01-11T07:24:32.527Z,1010.60
2023-01-11T07:25:32.702Z,1010.58
2023-01-11T07:26:32.856Z,1010.57
2023-01-11T07:27:33.022Z,1010.56
2023-01-11T07:28:33.203Z,1010.56
2023-01-11T07:29:33.357Z,1010.49
2023-01-11T07:30:39.535Z,1010.51
2023-01-11T07:31:34.776Z,1010.58
2023-01-11T07:32:33.899Z,1010.55
2023-01-11T07:33:34.035Z,1010.55
2023-01-11T07:34:34.205Z,1010.54
2023-01-11T07:35:34.361Z,1010.59
2023-01-11T07:36:34.538Z,1010.52
2023-01-11T07:37:34.722Z,1010.51
2023-01-11T07:38:34.918Z,1010.59
2023-01-11T07:39:43.152Z,1010.57
2023-01-11T07:40:36.225Z,1010.52
2023-01-11T07:41:35.418Z,1010.49
2023-01-11T07:42:35.609Z,1010.50
2023-01-11T07:43:35.788Z,1010.53
2023-01-11T07:44:35.981Z,1010.53
2023-01-11T07:45:45.382Z,1010.54
2023-01-11T07:46:37.431Z,1010.49
2023-01-11T07:47:36.488Z,1010.47
2023-01-11T07:48:36.639Z,1010.51
2023-01-11T07:49:36.804Z,1010.56
2023-01-11T07:50:36.962Z,1010.52
2023-01-11T07:51:37.134Z,1010.54
2023-01-11T07:52:37.321Z,1010.52
2023-01-11T07:53:37.493Z,1010.49
2023-01-11T07:54:37.664Z,1010.48
2023-01-11T07:55:37.837Z,1010.53
2023-01-11T07:56:38.015Z,1010.49
2023-01-11T07:57:38.187Z,1010.46
2023-01-11T07:58:38.350Z,1010.48
2023-01-11T07:59:38.519Z,1010.47
2023-01-11T08:00:38.675Z,1010.48
2023-01-11T08:01:38.872Z,1010.50
2023-01-11T08:02:39.142Z,1010.46
2023-01-11T08:03:39.267Z,1010.40
2023-01-11T08:04:39.357Z,1010.45
2023-01-11T08:05:39.517Z,1010.45
2023-01-11T08:06:39.719Z,1010.48
2023-01-11T08:07:39.846Z,1010.51
2023-01-11T08:08:40.006Z,1010.47
2023-01-11T08:09:40.177Z,1010.40
2023-01-11T08:10:42.069Z,1010.39
2023-01-11T08:11:40.527Z,1010.38
2023-01-11T08:12:40.698Z,1010.40
2023-01-11T08:13:40.868Z,1010.41
2023-01-11T08:14:41.035Z,1010.43
2023-01-11T08:15:41.224Z,1010.43
2023-01-11T08:16:41.411Z,1010.41
2023-01-11T08:17:41.574Z,1010.39
2023-01-11T08:18:41.737Z,1010.43
2023-01-11T08:19:41.916Z,1010.39
2023-01-11T08:20:42.080Z,1010.40
2023-01-11T08:21:42.243Z,1010.39
2023-01-11T08:22:42.418Z,1010.40
2023-01-11T08:23:42.601Z,1010.39
2023-01-11T08:24:42.790Z,1010.38
2023-01-11T08:25:42.931Z,1010.42
2023-01-11T08:26:43.188Z,1010.34
2023-01-11T08:27:43.303Z,1010.39
2023-01-11T08:28:43.473Z,1010.38
2023-01-11T08:29:43.666Z,1010.31
2023-01-11T08:30:43.870Z,1010.34
2023-01-11T08:31:43.972Z,1010.39
2023-01-11T08:32:44.170Z,1010.34
2023-01-11T08:33:44.313Z,1010.35
2023-01-11T08:34:44.529Z,1010.39
2023-01-11T08:35:44.688Z,1010.42
2023-01-11T08:36:44.856Z,1010.37
2023-01-11T08:37:45.029Z,1010.40
2023-01-11T08:38:45.215Z,1010.42
2023-01-11T08:39:45.398Z,1010.36
2023-01-11T08:40:45.550Z,1010.43
2023-01-11T08:41:45.717Z,1010.43
2023-01-11T08:42:45.912Z,1010.42
2023-01-11T08:43:46.086Z,1010.38
2023-01-11T08:44:46.286Z,1010.43
2023-01-11T08:45:46.481Z,1010.45
2023-01-11T08:46:46.705Z,1010.41
2023-01-11T08:47:46.819Z,1010.40
2023-01-11T08:48:47.002Z,1010.43
2023-01-11T08:49:47.198Z,1010.37
2023-01-11T08:50:47.358Z,1010.42
2023-01-11T08:51:47.519Z,1010.45
2023-01-11T08:52:47.716Z,1010.43
2023-01-11T08:53:47.864Z,1010.37
2023-01-11T08:54:48.072Z,1010.38
2023-01-11T08:55:48.218Z,1010.39
2023-01-11T08:56:48.373Z,1010.36
2023-01-11T08:57:48.562Z,1010.35
2023-01-11T08:58:48.744Z,1010.37
2023-01-11T08:59:48.929Z,1010.35
2023-01-11T09:00:49.137Z,1010.30
2023-01-11T09:01:49.471Z,1010.39
2023-01-11T09:02:49.531Z,1010.35
2023-01-11T09:03:49.612Z,1010.31
2023-01-11T09:04:49.807Z,1010.34
2023-01-11T09:05:49.992Z,1010.28
2023-01-11T09:06:50.168Z,1010.27
2023-01-11T09:07:50.331Z,1010.25
2023-01-11T09:08:50.509Z,1010.24
2023-01-11T09:09:50.672Z,1010.25
2023-01-11T09:10:50.886Z,1010.21
2023-01-11T09:11:51.012Z,1010.23
2023-01-11T09:12:51.205Z,1010.20
2023-01-11T09:13:51.380Z,1010.18
2023-01-11T09:14:51.545Z,1010.17
2023-01-11T09:15:51.786Z,1010.13
2023-01-11T09:16:51.908Z,1010.18
2023-01-11T09:17:52.079Z,1010.12
2023-01-11T09:18:52.234Z,1010.14
2023-01-11T09:19:52.378Z,1010.18
2023-01-11T09:20:52.526Z,1010.18
2023-01-11T09:21:52.682Z,1010.13
2023-01-11T09:22:53.174Z,1010.23
2023-01-11T09:23:53.068Z,1010.16
2023-01-11T09:24:53.239Z,1010.18
2023-01-11T09:25:53.453Z,1010.17
2023-01-11T09:26:53.617Z,1010.17
2023-01-11T09:27:53.755Z,1010.16
2023-01-11T09:28:53.967Z,1010.14
2023-01-11T09:29:54.099Z,1010.14
2023-01-11T09:30:54.355Z,1010.13
2023-01-11T09:31:54.431Z,1010.11
2023-01-11T09:32:54.614Z,1010.13
2023-01-11T09:33:54.800Z,1010.12
2023-01-11T09:34:54.981Z,1010.11
2023-01-11T09:35:55.164Z,1010.12
2023-01-11T09:36:55.336Z,1010.08
2023-01-11T09:37:55.492Z,1010.00
2023-01-11T09:38:55.643Z,1009.99
2023-01-11T09:39:55.820Z,1010.04
2023-01-11T09:40:56.003Z,1010.00
2023-01-11T09:41:56.143Z,1009.95
2023-01-11T09:42:56.354Z,1010.02
2023-01-11T09:43:56.496Z,1009.98
2023-01-11T09:44:56.840Z,1009.91
2023-01-11T09:45:56.882Z,1009.97
2023-01-11T09:46:57.095Z,1009.93
2023-01-11T09:47:57.157Z,1009.92
2023-01-11T09:48:57.313Z,1009.97
2023-01-11T09:49:57.501Z,1009.98
2023-01-11T09:50:57.798Z,1009.99
2023-01-11T09:51:59.787Z,1010.02
2023-01-11T09:52:58.059Z,1010.01
2023-01-11T09:53:58.226Z,1009.98
2023-01-11T09:54:58.415Z,1010.01
2023-01-11T09:55:58.617Z,1010.02
2023-01-11T09:56:58.758Z,1009.98
2023-01-11T09:57:58.946Z,1010.03
2023-01-11T09:58:59.152Z,1010.00
2023-01-11T09:59:59.297Z,1009.93
2023-01-11T10:01:01.215Z,1009.88
2023-01-11T10:01:59.603Z,1009.92
2023-01-11T10:02:59.774Z,1009.87
2023-01-11T10:03:59.943Z,1009.85
2023-01-11T10:05:00.162Z,1009.82
2023-01-11T10:06:00.281Z,1009.80
2023-01-11T10:07:00.448Z,1009.82
2023-01-11T10:18:23.583Z,1009.73
2023-01-11T10:18:28.490Z,1009.75
2023-01-11T10:18:31.765Z,1009.76
2023-01-11T10:18:32.761Z,1009.76
2023-01-11T10:18:34.252Z,1009.73
2023-01-11T10:19:36.581Z,1009.73
2023-01-11T10:20:03.745Z,1009.71
2023-01-11T10:21:02.872Z,1009.72
2023-01-11T10:22:03.062Z,1009.71
2023-01-11T10:23:03.250Z,1009.70
2023-01-11T10:24:03.418Z,1009.70
2023-01-11T10:25:03.591Z,1009.69
2023-01-11T10:26:03.777Z,1009.72
2023-01-11T10:27:04.161Z,1009.64
2023-01-11T10:28:04.086Z,1009.72
2023-01-11T10:29:04.265Z,1009.67
2023-01-11T10:30:04.424Z,1009.75
2023-01-11T10:31:04.621Z,1009.70
2023-01-11T10:32:04.735Z,1009.69
2023-01-11T10:33:04.923Z,1009.68
2023-01-11T10:35:02.588Z,1009.70
2023-01-11T10:36:02.796Z,1009.64
2023-01-11T10:37:02.977Z,1009.65
2023-01-11T10:38:03.145Z,1009.61
2023-01-11T10:39:03.433Z,1009.61
2023-01-11T10:40:03.564Z,1009.59
2023-01-11T10:41:03.699Z,1009.60
2023-01-11T10:42:03.846Z,1009.54
2023-01-11T10:43:04.060Z,1009.51
2023-01-11T10:44:04.222Z,1009.54
2023-01-11T10:45:04.415Z,1009.53
2023-01-11T10:46:04.676Z,1009.53
2023-01-11T10:47:04.731Z,1009.55
2023-01-11T10:48:04.905Z,1009.53
2023-01-11T10:49:05.073Z,1009.55
2023-01-11T10:50:06.402Z,1009.54
2023-01-11T10:51:05.437Z,1009.57
2023-01-11T10:52:05.620Z,1009.55
2023-01-11T10:53:05.760Z,1009.58
2023-01-11T10:55:06.111Z,1009.53
2023-01-11T10:56:06.271Z,1009.55
2023-01-11T10:57:07.227Z,1009.47
2023-01-11T10:58:06.592Z,1009.45
2023-01-11T10:59:06.762Z,1009.40
2023-01-11T11:00:06.966Z,1009.46
2023-01-11T11:01:07.179Z,1009.46
2023-01-11T11:02:07.315Z,1009.47
2023-01-11T11:03:07.457Z,1009.43
2023-01-11T11:04:07.631Z,1009.38
2023-01-11T11:05:07.799Z,1009.37
2023-01-11T11:06:07.934Z,1009.37
2023-01-11T11:07:08.095Z,1009.36
2023-01-11T11:08:08.283Z,1009.34
2023-01-11T11:09:08.459Z,1009.35
2023-01-11T11:10:08.623Z,1009.31
2023-01-11T11:11:08.771Z,1009.32
2023-01-11T11:12:08.925Z,1009.30
2023-01-11T11:13:09.086Z,1009.25
2023-01-11T11:14:09.286Z,1009.27
2023-01-11T11:15:09.438Z,1009.24
2023-01-11T11:16:09.632Z,1009.22
2023-01-11T11:17:09.783Z,1009.20
2023-01-11T11:18:09.933Z,1009.23
2023-01-11T11:19:10.126Z,1009.19
2023-01-11T11:20:10.278Z,1009.22
2023-01-11T11:21:10.475Z,1009.19
2023-01-11T11:22:10.602Z,1009.20
2023-01-11T11:23:10.769Z,1009.13
2023-01-11T11:24:10.947Z,1009.18
2023-01-11T11:25:11.086Z,1009.13
2023-01-11T11:26:11.239Z,1009.11
2023-01-11T11:27:11.458Z,1009.16
2023-01-11T11:28:11.572Z,1009.16
2023-01-11T11:29:11.767Z,1009.12
2023-01-11T11:30:11.922Z,1009.12
2023-01-11T11:31:12.125Z,1009.11
2023-01-11T11:32:12.269Z,1009.08
2023-01-11T11:33:12.476Z,1009.04
2023-01-11T11:34:12.573Z,1009.05
2023-01-11T11:35:12.775Z,1009.02
2023-01-11T11:36:12.938Z,1009.04
2023-01-11T11:37:13.113Z,1009.01
2023-01-11T11:38:13.279Z,1008.98
2023-01-11T11:39:13.506Z,1008.96
2023-01-11T11:40:13.687Z,1008.98
2023-01-11T11:41:13.848Z,1009.01
2023-01-11T11:42:14.023Z,1009.00
2023-01-11T11:43:14.231Z,1008.97
2023-01-11T11:44:14.367Z,1008.96
2023-01-11T11:45:14.532Z,1008.95
2023-01-11T11:46:18.664Z,1008.99
2023-01-11T11:47:14.893Z,1008.96
2023-01-11T11:48:15.066Z,1008.95
2023-01-11T11:49:15.254Z,1009.03
2023-01-11T11:50:17.021Z,1008.96
2023-01-11T11:51:15.620Z,1008.87
2023-01-11T11:52:15.775Z,1008.90
2023-01-11T11:53:16.006Z,1008.88
2023-01-11T11:54:16.199Z,1008.84
2023-01-11T11:55:16.305Z,1008.84
2023-01-11T11:56:16.476Z,1008.79
2023-01-11T11:57:16.651Z,1008.79
2023-01-11T11:58:16.783Z,1008.81
2023-01-11T11:59:16.956Z,1008.80
2023-01-11T12:00:17.163Z,1008.81
2023-01-11T12:01:17.314Z,1008.80
2023-01-11T12:02:17.491Z,1008.77
2023-01-11T12:03:17.621Z,1008.80
2023-01-11T12:04:17.777Z,1008.79
2023-01-11T12:05:18.052Z,1008.72
2023-01-11T12:06:18.097Z,1008.70
2023-01-11T12:07:18.277Z,1008.72
2023-01-11T12:08:18.430Z,1008.72
2023-01-11T12:09:18.581Z,1008.72
2023-01-11T12:10:18.785Z,1008.70
2023-01-11T12:11:18.927Z,1008.69
2023-01-11T12:12:19.118Z,1008.69
2023-01-11T12:13:19.287Z,1008.69
2023-01-11T12:14:19.500Z,1008.69
2023-01-11T12:15:19.617Z,1008.68